createdAt,value
2023-02-27T00:01:10.509Z,75.10
2023-02-27T00:03:43.044Z,75.32
2023-02-27T00:06:15.013Z,75.38
2023-02-27T00:08:47.115Z,75.52
2023-02-27T00:11:22.153Z,76.59
2023-02-27T00:13:54.226Z,76.89
2023-02-27T00:16:26.656Z,76.47
2023-02-27T00:19:01.398Z,76.87
2023-02-27T00:21:35.849Z,76.43
2023-02-27T00:24:09.808Z,76.50
2023-02-27T00:26:45.064Z,76.14
2023-02-27T00:29:17.793Z,76.48
2023-02-27T00:31:50.003Z,76.58
2023-02-27T00:34:22.159Z,76.79
2023-02-27T00:36:54.137Z,77.05
2023-02-27T00:39:26.113Z,76.48
2023-02-27T00:41:58.101Z,76.55
2023-02-27T00:44:30.078Z,76.46
2023-02-27T00:47:02.119Z,76.43
2023-02-27T00:49:34.201Z,75.90
2023-02-27T00:52:06.285Z,76.93
2023-02-27T00:54:38.407Z,77.01
2023-02-27T00:57:10.393Z,76.99
2023-02-27T00:59:43.867Z,76.79
2023-02-27T01:02:16.037Z,77.37
2023-02-27T01:04:48.335Z,77.05
2023-02-27T01:07:20.549Z,76.69
2023-02-27T01:09:52.563Z,76.58
2023-02-27T01:12:24.786Z,77.04
2023-02-27T01:14:56.762Z,76.53
2023-02-27T01:17:28.799Z,76.37
2023-02-27T01:20:00.802Z,76.87
2023-02-27T01:22:33.481Z,77.60
2023-02-27T01:25:06.150Z,78.46
2023-02-27T01:27:38.226Z,78.59
2023-02-27T01:30:12.890Z,78.74
2023-02-27T01:32:44.916Z,78.63
2023-02-27T01:35:18.000Z,79.43
2023-02-27T01:37:50.074Z,79.61
2023-02-27T01:40:22.210Z,79.91
2023-02-27T01:42:54.299Z,79.57
2023-02-27T01:45:33.619Z,78.83
2023-02-27T01:48:15.168Z,79.05
2023-02-27T01:50:56.920Z,79.22
2023-02-27T01:53:33.634Z,79.54
2023-02-27T01:56:24.794Z,79.34
2023-02-27T01:59:05.437Z,79.16
2023-02-27T02:01:37.820Z,79.24
2023-02-27T02:04:37.204Z,79.52
2023-02-27T02:07:17.205Z,79.99
2023-02-27T02:09:54.173Z,79.94
2023-02-27T02:12:31.348Z,80.13
2023-02-27T02:15:06.276Z,80.20
2023-02-27T02:18:02.014Z,79.90
2023-02-27T02:21:08.314Z,80.46
2023-02-27T02:24:18.344Z,80.50
2023-02-27T02:27:19.174Z,80.29
2023-02-27T02:30:25.579Z,80.15
2023-02-27T02:33:22.168Z,80.07
2023-02-27T02:36:34.966Z,80.41
2023-02-27T02:39:50.188Z,80.81
2023-02-27T02:42:38.662Z,80.47
2023-02-27T02:45:52.999Z,80.64
2023-02-27T02:49:23.121Z,80.84
2023-02-27T02:52:16.173Z,80.75
2023-02-27T02:55:22.619Z,80.52
2023-02-27T02:58:08.637Z,80.71
2023-02-27T03:00:50.618Z,81.01
2023-02-27T03:03:37.417Z,81.02
2023-02-27T03:06:35.227Z,81.20
2023-02-27T03:09:37.871Z,81.23
2023-02-27T03:12:14.695Z,81.26
2023-02-27T03:15:00.869Z,81.15
2023-02-27T03:17:38.716Z,80.85
2023-02-27T03:20:29.717Z,81.71
2023-02-27T03:23:10.342Z,81.86
2023-02-27T03:25:46.422Z,81.77
2023-02-27T03:28:24.556Z,81.58
2023-02-27T03:31:10.146Z,81.63
2023-02-27T03:34:17.784Z,81.85
2023-02-27T03:37:23.878Z,81.65
2023-02-27T03:40:06.546Z,82.42
2023-02-27T03:43:02.555Z,82.96
2023-02-27T03:45:40.115Z,82.98
2023-02-27T03:48:12.411Z,83.65
2023-02-27T03:50:44.499Z,83.41
2023-02-27T03:53:43.994Z,83.31
2023-02-27T03:56:21.039Z,83.66
2023-02-27T03:58:54.300Z,83.66
2023-02-27T04:01:26.946Z,84.21
2023-02-27T04:04:07.723Z,84.37
2023-02-27T04:07:03.793Z,84.31
2023-02-27T04:09:44.525Z,84.51
2023-02-27T04:12:50.039Z,84.57
2023-02-27T04:16:00.872Z,84.20
2023-02-27T04:19:00.943Z,84.59
2023-02-27T04:22:04.944Z,84.54
2023-02-27T04:24:50.182Z,84.77
2023-02-27T04:27:45.273Z,85.26
2023-02-27T04:30:28.753Z,85.32
2023-02-27T04:33:30.620Z,85.55
2023-02-27T04:36:16.567Z,85.36
2023-02-27T04:39:19.136Z,85.32
2023-02-27T04:42:03.559Z,84.87
2023-02-27T04:44:39.262Z,85.32
2023-02-27T04:47:14.549Z,84.78
2023-02-27T04:49:55.782Z,84.83
2023-02-27T04:52:43.967Z,85.11
2023-02-27T04:55:27.333Z,85.12
2023-02-27T04:58:06.456Z,85.07
2023-02-27T05:00:42.088Z,84.80
2023-02-27T05:03:25.357Z,85.31
2023-02-27T05:06:01.029Z,85.49
2023-02-27T05:08:51.400Z,85.55
2023-02-27T05:12:21.660Z,85.23
2023-02-27T05:15:07.221Z,85.75
2023-02-27T05:18:04.427Z,85.93
2023-02-27T05:20:54.367Z,85.95
2023-02-27T05:23:56.486Z,86.00
2023-02-27T05:27:30.666Z,86.24
2023-02-27T05:30:25.524Z,86.70
2023-02-27T05:33:13.190Z,87.05
2023-02-27T05:36:05.518Z,86.61
2023-02-27T05:38:44.703Z,86.74
2023-02-27T05:41:53.382Z,86.79
2023-02-27T05:44:34.325Z,86.88
2023-02-27T05:47:13.014Z,87.44
2023-02-27T05:49:53.811Z,87.30
2023-02-27T05:52:28.092Z,87.55
2023-02-27T05:55:17.032Z,87.44
2023-02-27T05:58:06.683Z,88.08
2023-02-27T06:00:52.144Z,88.43
2023-02-27T06:03:25.353Z,87.78
2023-02-27T06:06:00.944Z,87.94
2023-02-27T06:08:33.586Z,87.52
2023-02-27T06:11:08.530Z,87.36
2023-02-27T06:13:42.124Z,87.34
2023-02-27T06:16:15.681Z,87.87
2023-02-27T06:18:47.790Z,88.53
2023-02-27T06:21:19.842Z,88.25
2023-02-27T06:23:53.325Z,88.76
2023-02-27T06:26:25.814Z,88.64
2023-02-27T06:29:02.830Z,88.75
2023-02-27T06:31:34.837Z,88.64
2023-02-27T06:34:08.582Z,88.66
2023-02-27T06:36:40.777Z,88.70
2023-02-27T06:39:13.024Z,88.79
2023-02-27T06:41:45.011Z,88.36
2023-02-27T06:44:19.395Z,88.78
2023-02-27T06:46:51.486Z,88.93
2023-02-27T06:49:23.573Z,89.21
2023-02-27T06:51:56.593Z,89.25
2023-02-27T06:54:28.530Z,88.50
2023-02-27T06:57:05.200Z,88.72
2023-02-27T06:59:37.189Z,88.90
2023-02-27T07:02:17.004Z,88.42
2023-02-27T07:04:49.087Z,88.60
2023-02-27T07:07:35.931Z,88.24
2023-02-27T07:10:14.030Z,87.93
2023-02-27T07:12:46.021Z,88.15
2023-02-27T07:15:18.250Z,87.97
2023-02-27T07:17:50.253Z,87.74
2023-02-27T07:20:22.224Z,87.36
2023-02-27T07:22:54.264Z,87.07
2023-02-27T07:25:27.371Z,86.54
2023-02-27T07:27:59.386Z,86.92
2023-02-27T07:30:31.513Z,86.46
2023-02-27T07:33:03.634Z,86.67
2023-02-27T07:35:35.690Z,86.82
2023-02-27T07:38:07.676Z,86.29
2023-02-27T07:40:43.074Z,85.91
2023-02-27T07:43:15.617Z,85.88
2023-02-27T07:45:47.828Z,84.96
2023-02-27T07:48:21.454Z,84.66
2023-02-27T07:50:53.464Z,84.39
2023-02-27T07:53:26.039Z,83.62
2023-02-27T07:55:58.126Z,83.33
2023-02-27T07:58:30.151Z,83.05
2023-02-27T08:01:02.081Z,82.62
2023-02-27T08:03:34.143Z,81.21
2023-02-27T08:06:06.570Z,81.50
2023-02-27T08:08:39.112Z,80.93
2023-02-27T08:11:11.227Z,79.29
2023-02-27T08:14:00.019Z,78.56
2023-02-27T08:16:33.407Z,77.72
2023-02-27T08:19:05.646Z,77.68
2023-02-27T08:21:37.599Z,76.53
2023-02-27T08:24:09.598Z,75.55
2023-02-27T08:26:41.945Z,74.84
2023-02-27T08:29:16.100Z,73.99
2023-02-27T08:31:49.909Z,73.89
2023-02-27T08:34:22.106Z,73.51
2023-02-27T08:36:54.684Z,73.29
2023-02-27T08:39:28.731Z,74.15
2023-02-27T08:42:00.823Z,75.35
2023-02-27T08:44:33.567Z,76.08
2023-02-27T08:47:05.728Z,76.28
2023-02-27T08:49:37.771Z,76.78
2023-02-27T08:52:12.641Z,77.38
2023-02-27T08:54:48.748Z,78.85
2023-02-27T08:57:20.928Z,78.96
2023-02-27T08:59:53.223Z,79.44
2023-02-27T09:02:29.285Z,79.85
2023-02-27T09:05:01.981Z,80.30
2023-02-27T09:07:34.636Z,80.74
2023-02-27T09:10:10.865Z,79.74
2023-02-27T09:12:44.574Z,79.82
2023-02-27T09:15:16.878Z,80.29
2023-02-27T09:17:48.966Z,80.30
2023-02-27T09:20:21.059Z,80.16
2023-02-27T09:22:59.802Z,80.54
2023-02-27T09:25:36.293Z,80.93
2023-02-27T09:28:08.426Z,80.21
2023-02-27T09:30:40.721Z,79.78
2023-02-27T09:33:12.984Z,79.80
2023-02-27T09:35:45.217Z,79.66
2023-02-27T09:38:17.402Z,79.90
2023-02-27T09:40:52.967Z,79.27
2023-02-27T09:43:37.428Z,79.93
2023-02-27T09:46:18.158Z,78.74
2023-02-27T09:48:54.466Z,78.41
2023-02-27T09:51:28.479Z,78.07
2023-02-27T09:54:01.981Z,77.26
2023-02-27T09:56:49.567Z,77.04
2023-02-27T09:59:45.173Z,76.04
2023-02-27T10:06:32.695Z,73.73
2023-02-27T10:10:12.717Z,70.55
2023-02-27T10:13:33.828Z,67.55
2023-02-27T10:16:08.840Z,66.37
2023-02-27T10:18:54.400Z,65.22
2023-02-27T10:21:35.431Z,64.70
2023-02-27T10:24:27.646Z,62.99
2023-02-27T10:27:05.713Z,63.04
2023-02-27T10:29:42.184Z,62.13
2023-02-27T10:32:25.592Z,57.46
2023-02-27T10:35:21.512Z,55.26
2023-02-27T10:38:01.400Z,53.78
2023-02-27T10:40:36.662Z,43.83
2023-02-27T10:43:09.249Z,36.70
2023-02-27T10:45:42.351Z,31.17
2023-02-27T10:48:15.623Z,28.11
2023-02-27T10:50:52.450Z,25.99
2023-02-27T10:53:27.317Z,23.93
2023-02-27T10:56:08.045Z,24.17
2023-02-27T10:58:40.702Z,25.86
2023-02-27T11:01:13.586Z,28.09
2023-02-27T11:03:46.061Z,30.88
2023-02-27T11:06:26.968Z,33.78
2023-02-27T11:09:26.644Z,35.76
2023-02-27T11:12:11.268Z,39.96
2023-02-27T11:14:56.564Z,38.46
2023-02-27T11:17:34.483Z,40.36
2023-02-27T11:20:40.795Z,41.77
2023-02-27T11:23:24.592Z,42.20
2023-02-27T11:26:15.581Z,43.31
2023-02-27T11:29:19.010Z,43.83
2023-02-27T11:31:54.741Z,42.51
2023-02-27T11:34:38.046Z,42.22
2023-02-27T11:37:34.333Z,41.41
2023-02-27T11:40:09.603Z,41.44
2023-02-27T11:42:52.102Z,41.67
2023-02-27T11:46:04.587Z,42.38
2023-02-27T11:48:41.925Z,43.67
2023-02-27T11:51:44.653Z,44.11
2023-02-27T11:54:50.999Z,44.08
2023-02-27T11:57:39.036Z,44.65
2023-02-27T12:00:41.433Z,44.12
2023-02-27T12:03:35.828Z,44.69
2023-02-27T12:06:40.050Z,43.84
2023-02-27T12:09:32.704Z,44.05
2023-02-27T12:12:24.893Z,43.71
2023-02-27T12:15:26.587Z,42.96
2023-02-27T12:18:18.806Z,42.35
2023-02-27T12:21:16.129Z,43.94
2023-02-27T12:24:30.100Z,44.34
2023-02-27T12:27:21.224Z,44.29
2023-02-27T12:30:06.310Z,43.30
2023-02-27T12:32:50.516Z,43.02
2023-02-27T12:35:33.235Z,43.28
2023-02-27T12:38:07.427Z,43.21
2023-02-27T12:41:23.361Z,42.65
2023-02-27T12:44:14.205Z,44.30
2023-02-27T12:47:32.959Z,44.39
2023-02-27T12:50:22.110Z,43.35
2023-02-27T12:53:05.754Z,43.60
2023-02-27T12:55:55.311Z,42.34
2023-02-27T12:58:59.981Z,41.73
2023-02-27T13:01:48.408Z,40.72
2023-02-27T13:04:42.767Z,38.81
2023-02-27T13:07:37.562Z,37.83
2023-02-27T13:10:27.051Z,38.36
2023-02-27T13:13:11.635Z,36.72
2023-02-27T13:15:59.642Z,35.69
2023-02-27T13:18:45.819Z,36.15
2023-02-27T13:21:53.110Z,36.97
2023-02-27T13:24:28.523Z,37.48
2023-02-27T13:27:39.219Z,37.11
2023-02-27T13:30:27.487Z,37.47
2023-02-27T13:33:42.513Z,37.86
2023-02-27T13:36:39.584Z,35.94
2023-02-27T13:39:42.442Z,36.42
2023-02-27T13:42:26.910Z,37.17
2023-02-27T13:45:06.398Z,37.91
2023-02-27T13:47:50.060Z,38.62
2023-02-27T13:50:25.974Z,39.08
2023-02-27T13:53:10.850Z,39.48
2023-02-27T13:55:43.022Z,39.20
2023-02-27T13:58:18.505Z,39.85
2023-02-27T14:01:00.192Z,40.27
2023-02-27T14:03:32.846Z,41.17
2023-02-27T14:06:06.954Z,41.17
2023-02-27T14:08:57.561Z,42.85
2023-02-27T14:11:40.025Z,41.91
2023-02-27T14:14:44.417Z,42.84
2023-02-27T14:17:36.949Z,41.79
2023-02-27T14:20:32.079Z,42.84
2023-02-27T14:23:16.254Z,43.05
2023-02-27T14:26:00.230Z,43.05
2023-02-27T14:28:51.872Z,43.07
2023-02-27T14:31:33.108Z,42.45
2023-02-27T14:34:16.223Z,42.19
2023-02-27T14:36:54.194Z,42.15
2023-02-27T14:39:31.438Z,41.96
2023-02-27T14:42:47.174Z,43.15
2023-02-27T14:45:24.554Z,43.94
2023-02-27T14:47:58.357Z,44.37
2023-02-27T14:50:39.346Z,44.03
2023-02-27T14:53:27.268Z,44.06
2023-02-27T14:58:55.476Z,43.70
2023-02-27T15:01:36.076Z,43.06
2023-02-27T15:04:08.836Z,43.90
2023-02-27T15:06:45.475Z,44.05
2023-02-27T15:09:31.195Z,44.64
2023-02-27T15:12:05.043Z,43.68
2023-02-27T15:14:40.177Z,42.08
2023-02-27T15:17:23.015Z,42.31
2023-02-27T15:19:58.699Z,42.59
2023-02-27T15:22:39.519Z,42.54
2023-02-27T15:25:40.038Z,43.19
2023-02-27T15:28:26.416Z,44.04
2023-02-27T15:30:58.767Z,43.38
2023-02-27T15:33:33.020Z,42.95
2023-02-27T15:36:06.221Z,43.56
2023-02-27T15:38:41.116Z,43.30
2023-02-27T15:41:20.769Z,44.35
2023-02-27T15:43:53.914Z,44.79
2023-02-27T15:46:26.890Z,44.98
2023-02-27T15:48:59.850Z,43.95
2023-02-27T15:51:32.054Z,44.02
2023-02-27T15:54:04.687Z,43.82
2023-02-27T15:56:38.721Z,43.51
2023-02-27T15:59:16.212Z,44.20
2023-02-27T16:01:49.932Z,44.41
2023-02-27T16:04:26.640Z,45.29
2023-02-27T16:07:17.220Z,45.82
2023-02-27T16:10:06.794Z,46.15
2023-02-27T16:12:43.064Z,46.71
2023-02-27T16:15:32.961Z,46.86
2023-02-27T16:18:08.615Z,47.20
2023-02-27T16:20:55.798Z,46.56
2023-02-27T16:23:32.945Z,46.83
2023-02-27T16:26:29.423Z,46.27
2023-02-27T16:29:22.943Z,46.98
2023-02-27T16:31:57.692Z,47.30
2023-02-27T16:34:45.502Z,48.16
2023-02-27T16:37:41.217Z,47.97
2023-02-27T16:40:18.447Z,48.25
2023-02-27T16:42:53.848Z,48.47
2023-02-27T16:45:32.425Z,49.46
2023-02-27T16:48:05.885Z,49.37
2023-02-27T16:50:43.130Z,49.48
2023-02-27T16:53:18.033Z,50.01
2023-02-27T16:55:52.807Z,49.68
2023-02-27T16:58:25.980Z,49.70
2023-02-27T17:01:01.154Z,48.91
2023-02-27T17:03:33.442Z,49.42
2023-02-27T17:06:07.943Z,49.60
2023-02-27T17:08:43.044Z,49.92
2023-02-27T17:11:15.048Z,50.39
2023-02-27T17:14:00.437Z,49.38
2023-02-27T17:16:33.475Z,49.51
2023-02-27T17:19:08.942Z,49.66
2023-02-27T17:21:41.837Z,49.66
2023-02-27T17:24:14.942Z,51.40
2023-02-27T17:26:50.479Z,52.58
2023-02-27T17:29:27.831Z,53.06
2023-02-27T17:32:01.722Z,54.40
2023-02-27T17:34:34.009Z,55.55
2023-02-27T17:37:06.791Z,55.61
2023-02-27T17:39:39.569Z,57.23
2023-02-27T17:42:13.095Z,58.20
2023-02-27T17:44:46.644Z,57.91
2023-02-27T17:47:19.005Z,59.22
2023-02-27T17:49:51.028Z,59.38
2023-02-27T17:52:23.202Z,60.01
2023-02-27T17:54:55.869Z,60.47
2023-02-27T17:57:32.356Z,61.95
2023-02-27T18:00:15.392Z,62.67
2023-02-27T18:02:48.399Z,62.88
2023-02-27T18:05:22.082Z,63.19
2023-02-27T18:08:08.940Z,64.20
2023-02-27T18:16:46.360Z,65.50
2023-02-27T18:19:19.018Z,65.78
2023-02-27T18:21:54.664Z,66.06
2023-02-27T18:24:26.993Z,66.99
2023-02-27T18:26:59.019Z,67.83
2023-02-27T18:29:32.618Z,67.98
2023-02-27T18:32:05.941Z,68.36
2023-02-27T18:35:04.851Z,68.36
2023-02-27T18:37:37.056Z,69.16
2023-02-27T18:40:12.050Z,68.67
2023-02-27T18:42:47.838Z,68.93
2023-02-27T18:45:20.455Z,69.10
2023-02-27T18:47:53.127Z,69.72
2023-02-27T18:50:25.643Z,70.45
2023-02-27T18:53:01.060Z,70.18
2023-02-27T18:55:34.492Z,71.02
2023-02-27T18:58:07.062Z,71.60
2023-02-27T19:00:42.666Z,69.77
2023-02-27T19:03:16.619Z,70.02
2023-02-27T19:05:49.872Z,70.40
2023-02-27T19:08:25.131Z,69.57
2023-02-27T19:10:58.884Z,69.89
2023-02-27T19:13:31.392Z,70.39
2023-02-27T19:16:06.966Z,70.42
2023-02-27T19:18:42.266Z,71.01
2023-02-27T19:21:18.792Z,71.39
2023-02-27T19:24:04.575Z,72.02
2023-02-27T19:26:42.406Z,70.94
2023-02-27T19:29:15.185Z,70.40
2023-02-27T19:31:47.387Z,70.13
2023-02-27T19:34:19.541Z,69.64
2023-02-27T19:36:52.034Z,70.87
2023-02-27T19:39:23.982Z,70.74
2023-02-27T19:41:56.766Z,70.16
2023-02-27T19:44:28.791Z,70.29
2023-02-27T19:47:00.921Z,70.11
2023-02-27T19:49:32.984Z,70.15
2023-02-27T19:52:05.376Z,69.55
2023-02-27T19:54:41.104Z,68.83
2023-02-27T19:57:14.377Z,68.91
2023-02-27T19:59:46.878Z,67.90
2023-02-27T20:02:18.873Z,69.54
2023-02-27T20:04:50.937Z,68.50
2023-02-27T20:07:24.041Z,67.96
2023-02-27T20:09:57.366Z,69.14
2023-02-27T20:12:29.420Z,68.43
2023-02-27T20:15:10.328Z,69.06
2023-02-27T20:17:42.418Z,68.40
2023-02-27T20:20:14.605Z,67.52
2023-02-27T20:22:46.793Z,67.82
2023-02-27T20:25:19.214Z,67.70
2023-02-27T20:27:51.451Z,67.16
2023-02-27T20:30:27.448Z,66.56
2023-02-27T20:32:59.976Z,66.24
2023-02-27T20:35:34.425Z,67.51
2023-02-27T20:38:07.022Z,67.28
2023-02-27T20:40:39.006Z,67.17
2023-02-27T20:43:11.081Z,67.98
2023-02-27T20:45:43.198Z,68.60
2023-02-27T20:48:15.478Z,68.41
2023-02-27T20:50:47.872Z,67.61
2023-02-27T20:53:19.855Z,67.33
2023-02-27T20:55:51.841Z,68.13
2023-02-27T20:58:23.904Z,68.16
2023-02-27T21:00:55.959Z,68.60
2023-02-27T21:03:33.545Z,67.89
2023-02-27T21:06:10.541Z,67.82
2023-02-27T21:08:49.302Z,67.95
2023-02-27T21:11:29.786Z,68.26
2023-02-27T21:14:11.748Z,67.91
2023-02-27T21:16:43.782Z,67.96
2023-02-27T21:19:16.706Z,67.56
2023-02-27T21:21:48.914Z,67.69
2023-02-27T21:24:21.606Z,67.22
2023-02-27T21:26:53.667Z,67.77
2023-02-27T21:29:25.841Z,67.83
2023-02-27T21:31:57.838Z,67.97
2023-02-27T21:34:30.217Z,68.75
2023-02-27T21:37:05.941Z,68.19
2023-02-27T21:39:38.562Z,67.50
2023-02-27T21:42:10.528Z,67.18
2023-02-27T21:44:43.925Z,67.20
2023-02-27T21:47:15.938Z,67.71
2023-02-27T21:49:48.016Z,68.61
2023-02-27T21:52:20.199Z,67.45
2023-02-27T21:54:54.261Z,67.38
2023-02-27T21:57:26.270Z,66.78
2023-02-27T21:59:58.327Z,67.98
2023-02-27T22:02:30.466Z,67.31
2023-02-27T22:05:02.927Z,66.82
2023-02-27T22:07:35.111Z,66.35
2023-02-27T22:10:07.534Z,66.17
2023-02-27T22:12:39.538Z,65.72
2023-02-27T22:15:15.019Z,65.79
2023-02-27T22:17:48.042Z,65.71
2023-02-27T22:20:20.500Z,66.05
2023-02-27T22:22:52.565Z,66.14
2023-02-27T22:25:24.589Z,66.55
2023-02-27T22:27:56.566Z,66.78
2023-02-27T22:30:30.129Z,66.80
2023-02-27T22:33:02.315Z,66.17
2023-02-27T22:35:36.730Z,65.76
2023-02-27T22:38:08.784Z,66.20
2023-02-27T22:40:40.749Z,65.94
2023-02-27T22:43:12.757Z,66.14
2023-02-27T22:45:48.764Z,66.37
2023-02-27T22:48:22.692Z,65.88
2023-02-27T22:51:15.780Z,66.17
2023-02-27T22:54:16.774Z,65.91
2023-02-27T22:56:57.969Z,64.92
2023-02-27T22:59:30.107Z,65.22
2023-02-27T23:02:02.165Z,65.60
2023-02-27T23:04:34.361Z,67.35
2023-02-27T23:07:06.295Z,66.89
2023-02-27T23:09:40.722Z,66.29
2023-02-27T23:12:12.835Z,66.50
2023-02-27T23:14:44.846Z,66.85
2023-02-27T23:17:16.969Z,66.85
2023-02-27T23:19:49.904Z,67.16
2023-02-27T23:22:22.089Z,66.40
2023-02-27T23:24:54.169Z,66.20
2023-02-27T23:27:26.634Z,66.59
2023-02-27T23:30:05.220Z,66.46
2023-02-27T23:32:43.658Z,67.38
2023-02-27T23:35:17.337Z,66.33
2023-02-27T23:37:51.869Z,65.96
2023-02-27T23:40:27.152Z,66.04
2023-02-27T23:43:17.512Z,67.08
2023-02-27T23:45:51.049Z,65.70
2023-02-27T23:48:23.344Z,66.08
2023-02-27T23:50:59.622Z,65.72
2023-02-27T23:53:33.600Z,66.51
2023-02-27T23:56:24.529Z,65.69
2023-02-27T23:59:07.524Z,66.04
